Time;durP1;ratioP1;P1;durP2;ratioP2;P2;SDS_P1;SDS_P2;PMS_P1;PMS_P2;Temp;Humidity;BMP_temperature;BMP_pressure;BME280_temperature;BME280_humidity;BME280_pressure;Samples;Min_cycle;Max_cycle;Signal;HPM_P1;HPM_P2
2024/02/22 00:01:05;;;;;;;59.23;2.87;;;;;;;;;;5054337;28;20448;-70
2024/02/22 00:03:32;;;;;;;57.60;2.83;;;;;;;;;;5053532;28;20556;-68
2024/02/22 00:05:59;;;;;;;56.30;2.80;;;;;;;;;;5053237;28;20461;-70
2024/02/22 00:08:26;;;;;;;57.00;3.00;;;;;;;;;;5053612;28;20455;-70
2024/02/22 00:10:57;;;;;;;56.80;2.63;;;;;;;;;;5053287;28;20848;-69
2024/02/22 00:13:24;;;;;;;57.37;2.80;;;;;;;;;;5053833;28;20874;-69
2024/02/22 00:15:51;;;;;;;58.90;2.60;;;;;;;;;;5053892;28;20552;-69
2024/02/22 00:18:19;;;;;;;57.07;2.73;;;;;;;;;;5052973;28;20449;-70
2024/02/22 00:20:46;;;;;;;57.67;2.77;;;;;;;;;;5053869;28;20458;-69
2024/02/22 00:23:13;;;;;;;56.70;2.80;;;;;;;;;;5053947;28;20893;-69
2024/02/22 00:25:40;;;;;;;59.93;2.87;;;;;;;;;;5053331;28;20461;-69
2024/02/22 00:28:08;;;;;;;60.10;2.90;;;;;;;;;;5053748;28;20476;-69
2024/02/22 00:30:35;;;;;;;58.43;2.90;;;;;;;;;;5053068;28;20501;-69
2024/02/22 00:33:03;;;;;;;57.07;3.20;;;;;;;;;;5052703;28;20828;-69
2024/02/22 00:35:30;;;;;;;56.00;2.50;;;;;;;;;;5052880;28;20479;-70
2024/02/22 00:37:57;;;;;;;57.90;2.93;;;;;;;;;;5052851;28;20964;-70
2024/02/22 00:40:24;;;;;;;56.27;2.93;;;;;;;;;;5052742;28;20454;-69
2024/02/22 00:42:51;;;;;;;55.30;2.70;;;;;;;;;;5053110;28;20451;-70
2024/02/22 00:45:20;;;;;;;56.67;2.60;;;;;;;;;;5053143;28;20566;-69
2024/02/22 00:47:47;;;;;;;56.10;2.60;;;;;;;;;;5053386;28;20456;-69
2024/02/22 00:50:14;;;;;;;55.70;2.60;;;;;;;;;;5053000;28;20448;-69
2024/02/22 00:52:41;;;;;;;55.50;2.40;;;;;;;;;;5052859;28;20445;-69
2024/02/22 00:55:09;;;;;;;56.30;2.67;;;;;;;;;;5052530;28;20471;-68
2024/02/22 00:57:36;;;;;;;57.37;2.67;;;;;;;;;;5052128;28;20444;-69
2024/02/22 01:00:04;;;;;;;56.43;2.77;;;;;;;;;;5052772;28;20452;-69
2024/02/22 01:02:33;;;;;;;57.60;2.67;;;;;;;;;;5052284;28;20445;-68
2024/02/22 01:05:00;;;;;;;59.10;2.70;;;;;;;;;;5052015;28;20449;-69
2024/02/22 01:07:27;;;;;;;57.70;2.80;;;;;;;;;;5052365;28;20535;-69
2024/02/22 01:09:54;;;;;;;56.47;2.80;;;;;;;;;;5052318;28;20951;-69
2024/02/22 01:12:21;;;;;;;56.17;2.70;;;;;;;;;;5052285;28;20790;-69
2024/02/22 01:14:48;;;;;;;56.07;2.67;;;;;;;;;;5052645;28;20546;-69
2024/02/22 01:17:16;;;;;;;57.50;2.77;;;;;;;;;;5052666;28;20888;-70
2024/02/22 01:19:45;;;;;;;56.13;2.63;;;;;;;;;;5052601;28;20453;-69
2024/02/22 01:22:12;;;;;;;56.77;2.80;;;;;;;;;;5052912;28;20889;-69
2024/02/22 01:24:39;;;;;;;55.70;2.30;;;;;;;;;;5052398;28;20472;-69
2024/02/22 01:27:07;;;;;;;56.10;2.53;;;;;;;;;;5052526;28;20469;-69
2024/02/22 01:29:34;;;;;;;56.50;2.80;;;;;;;;;;5052456;28;20459;-70
2024/02/22 01:32:01;;;;;;;56.17;2.60;;;;;;;;;;5051625;28;20488;-69
2024/02/22 01:34:28;;;;;;;56.67;2.83;;;;;;;;;;5051847;28;20459;-69
2024/02/22 01:36:57;;;;;;;56.37;2.83;;;;;;;;;;5052339;28;20473;-69
2024/02/22 01:39:24;;;;;;;56.43;2.57;;;;;;;;;;5051880;28;20447;-69
2024/02/22 01:41:51;;;;;;;58.57;2.70;;;;;;;;;;5052215;28;20937;-68
2024/02/22 01:44:18;;;;;;;57.00;2.73;;;;;;;;;;5052024;28;20465;-69
2024/02/22 01:46:46;;;;;;;57.37;2.80;;;;;;;;;;5052220;28;20513;-69
2024/02/22 01:49:13;;;;;;;56.27;2.80;;;;;;;;;;5052377;28;20453;-69
2024/02/22 01:51:40;;;;;;;56.90;2.80;;;;;;;;;;5052086;28;20487;-69
2024/02/22 01:54:09;;;;;;;59.87;3.07;;;;;;;;;;5051743;28;21030;-69
2024/02/22 01:56:36;;;;;;;56.23;2.67;;;;;;;;;;5051604;28;20471;-69
2024/02/22 01:59:03;;;;;;;56.37;3.07;;;;;;;;;;5051706;28;20454;-69
2024/02/22 02:01:31;;;;;;;57.83;3.10;;;;;;;;;;5051718;28;20462;-69
2024/02/22 02:03:58;;;;;;;56.67;2.77;;;;;;;;;;5051628;28;20457;-69
2024/02/22 02:06:25;;;;;;;55.93;2.80;;;;;;;;;;5051969;28;20463;-69
2024/02/22 02:08:53;;;;;;;56.33;3.20;;;;;;;;;;5051465;28;20541;-69
2024/02/22 02:11:22;;;;;;;56.17;2.70;;;;;;;;;;5051350;28;20906;-70
2024/02/22 02:13:49;;;;;;;56.60;2.70;;;;;;;;;;5051589;28;20457;-70
2024/02/22 02:16:16;;;;;;;55.80;2.43;;;;;;;;;;5051482;28;20476;-70
2024/02/22 02:18:43;;;;;;;55.90;2.70;;;;;;;;;;5051670;28;20555;-70
2024/02/22 02:21:13;;;;;;;56.57;2.57;;;;;;;;;;5051636;28;20956;-69
2024/02/22 02:23:47;;;;;;;55.90;2.77;;;;;;;;;;5051319;28;20444;-69
2024/02/22 02:26:16;;;;;;;56.57;3.33;;;;;;;;;;5051480;28;20478;-69
2024/02/22 02:28:43;;;;;;;55.70;2.60;;;;;;;;;;5050999;28;20459;-69
2024/02/22 02:31:10;;;;;;;55.90;2.60;;;;;;;;;;5051688;28;20487;-70
2024/02/22 02:33:38;;;;;;;56.87;2.70;;;;;;;;;;5053319;28;20458;-70
2024/02/22 02:36:05;;;;;;;55.30;2.20;;;;;;;;;;5071672;28;20480;-71
2024/02/22 02:38:32;;;;;;;56.80;2.77;;;;;;;;;;5071200;28;20455;-70
2024/02/22 02:40:59;;;;;;;56.10;2.70;;;;;;;;;;5071015;28;20540;-70
2024/02/22 02:43:28;;;;;;;57.57;3.07;;;;;;;;;;5077618;28;20541;-71
2024/02/22 02:45:55;;;;;;;55.57;2.57;;;;;;;;;;5077702;28;20493;-70
2024/02/22 02:48:22;;;;;;;56.57;2.40;;;;;;;;;;5077788;28;20935;-70
2024/02/22 02:50:49;;;;;;;57.40;2.57;;;;;;;;;;5078235;28;20452;-70
2024/02/22 02:53:16;;;;;;;55.80;2.70;;;;;;;;;;5077748;28;21001;-70
2024/02/22 02:55:43;;;;;;;56.27;2.87;;;;;;;;;;5077390;28;20464;-71
2024/02/22 02:58:10;;;;;;;55.90;2.50;;;;;;;;;;5077900;28;20482;-70
2024/02/22 03:00:39;;;;;;;56.10;2.50;;;;;;;;;;5077953;28;20441;-70
2024/02/22 03:03:06;;;;;;;55.97;2.57;;;;;;;;;;5077733;28;20446;-70
2024/02/22 03:05:33;;;;;;;55.90;2.70;;;;;;;;;;5077568;28;20465;-70
2024/02/22 03:08:00;;;;;;;55.87;2.37;;;;;;;;;;5078262;28;20449;-70
2024/02/22 03:10:27;;;;;;;56.00;2.40;;;;;;;;;;5077490;28;20448;-70
2024/02/22 03:12:54;;;;;;;57.60;2.50;;;;;;;;;;5077123;28;20499;-70
2024/02/22 03:15:21;;;;;;;56.17;2.40;;;;;;;;;;5077418;28;20469;-70
2024/02/22 03:17:50;;;;;;;55.97;2.30;;;;;;;;;;5077678;28;20927;-70
2024/02/22 03:20:17;;;;;;;55.00;2.30;;;;;;;;;;5077498;28;20476;-70
2024/02/22 03:22:44;;;;;;;55.93;2.53;;;;;;;;;;5077325;28;20932;-71
2024/02/22 03:25:12;;;;;;;55.97;2.77;;;;;;;;;;5077568;28;20469;-70
2024/02/22 03:27:39;;;;;;;56.90;2.60;;;;;;;;;;5077229;28;20489;-70
2024/02/22 03:30:08;;;;;;;55.60;2.63;;;;;;;;;;5077587;28;20977;-70
2024/02/22 03:32:37;;;;;;;55.67;2.33;;;;;;;;;;5077137;28;21035;-70
2024/02/22 03:35:06;;;;;;;55.93;2.20;;;;;;;;;;5077302;28;20461;-70
2024/02/22 03:37:33;;;;;;;55.70;2.40;;;;;;;;;;5077141;28;20446;-70
2024/02/22 03:40:00;;;;;;;56.30;2.30;;;;;;;;;;5077667;28;20449;-70
2024/02/22 03:42:29;;;;;;;54.90;2.33;;;;;;;;;;5076763;28;20455;-70
2024/02/22 03:44:56;;;;;;;56.00;2.30;;;;;;;;;;5077580;28;20538;-70
2024/02/22 03:47:23;;;;;;;55.40;2.27;;;;;;;;;;5077616;28;20448;-71
2024/02/22 03:49:50;;;;;;;56.40;2.50;;;;;;;;;;5076990;28;20814;-70
2024/02/22 03:52:18;;;;;;;55.77;2.57;;;;;;;;;;5076618;28;20481;-70
2024/02/22 03:54:47;;;;;;;55.40;2.40;;;;;;;;;;5072656;28;20445;-70
2024/02/22 03:57:14;;;;;;;55.57;2.40;;;;;;;;;;5073383;28;20471;-70
2024/02/22 03:59:41;;;;;;;55.70;2.37;;;;;;;;;;5073585;28;20446;-70
2024/02/22 04:02:08;;;;;;;56.20;2.20;;;;;;;;;;5073714;28;20445;-69
2024/02/22 04:04:35;;;;;;;56.10;2.40;;;;;;;;;;5073345;28;20445;-70
2024/02/22 04:07:03;;;;;;;55.97;2.70;;;;;;;;;;5073425;28;20470;-69
2024/02/22 04:09:30;;;;;;;55.90;2.47;;;;;;;;;;5073326;28;20453;-69
2024/02/22 04:11:58;;;;;;;56.47;3.33;;;;;;;;;;5073484;28;20481;-70
2024/02/22 04:14:25;;;;;;;56.83;3.00;;;;;;;;;;5073580;28;20454;-69
2024/02/22 04:16:52;;;;;;;56.70;3.00;;;;;;;;;;5073860;28;20465;-69
2024/02/22 04:19:19;;;;;;;55.80;2.47;;;;;;;;;;5073485;28;20453;-69
2024/02/22 04:21:47;;;;;;;56.30;2.57;;;;;;;;;;5073146;28;20433;-69
2024/02/22 04:24:14;;;;;;;55.40;2.77;;;;;;;;;;5073367;28;20457;-70
2024/02/22 04:26:47;;;;;;;56.47;2.80;;;;;;;;;;5073181;28;20468;-69
2024/02/22 04:29:16;;;;;;;56.10;2.53;;;;;;;;;;5073532;28;20454;-70
2024/02/22 04:31:43;;;;;;;56.13;2.50;;;;;;;;;;5073486;28;20481;-71
2024/02/22 04:34:10;;;;;;;56.90;2.63;;;;;;;;;;5073419;28;20836;-70
2024/02/22 04:36:40;;;;;;;57.77;2.70;;;;;;;;;;5073454;28;20461;-70
2024/02/22 04:39:07;;;;;;;55.67;2.40;;;;;;;;;;5073152;28;20442;-70
2024/02/22 04:41:34;;;;;;;56.57;2.70;;;;;;;;;;5073328;28;20496;-70
2024/02/22 04:44:02;;;;;;;55.67;2.50;;;;;;;;;;5073373;28;20447;-70
2024/02/22 04:46:32;;;;;;;56.60;2.80;;;;;;;;;;5073411;28;20486;-70
2024/02/22 04:48:59;;;;;;;55.90;2.23;;;;;;;;;;5073349;28;20454;-70
2024/02/22 04:51:26;;;;;;;55.80;2.70;;;;;;;;;;5073460;28;20583;-70
2024/02/22 04:53:54;;;;;;;58.63;2.80;;;;;;;;;;5073241;28;20510;-71
2024/02/22 04:56:21;;;;;;;56.23;2.70;;;;;;;;;;5073013;28;20472;-70
2024/02/22 04:58:48;;;;;;;55.90;2.40;;;;;;;;;;5073066;28;20470;-70
2024/02/22 05:01:16;;;;;;;56.50;2.80;;;;;;;;;;5072653;28;20536;-70
2024/02/22 05:03:44;;;;;;;56.17;2.40;;;;;;;;;;5072709;28;20451;-70
2024/02/22 05:06:12;;;;;;;56.27;2.60;;;;;;;;;;5071486;28;20974;-71
2024/02/22 05:08:39;;;;;;;56.00;2.83;;;;;;;;;;5072795;28;20484;-70
2024/02/22 05:11:07;;;;;;;56.53;2.40;;;;;;;;;;5072859;28;20526;-71
2024/02/22 05:13:34;;;;;;;55.97;2.20;;;;;;;;;;5072515;28;20511;-70
2024/02/22 05:16:01;;;;;;;56.07;2.57;;;;;;;;;;5072947;28;20468;-71
2024/02/22 05:18:29;;;;;;;57.63;2.97;;;;;;;;;;5072087;28;20549;-70
2024/02/22 05:20:57;;;;;;;56.50;2.60;;;;;;;;;;5072969;28;20445;-70
2024/02/22 05:23:25;;;;;;;56.07;2.40;;;;;;;;;;5072320;28;20819;-70
2024/02/22 05:25:52;;;;;;;56.00;2.77;;;;;;;;;;5072780;28;20484;-71
2024/02/22 05:28:19;;;;;;;56.10;2.80;;;;;;;;;;5072366;28;20457;-70
2024/02/22 05:30:46;;;;;;;56.30;2.70;;;;;;;;;;5072551;28;20820;-71
2024/02/22 05:33:13;;;;;;;56.00;2.60;;;;;;;;;;5072041;28;20488;-70
2024/02/22 05:35:40;;;;;;;55.60;2.63;;;;;;;;;;5072139;28;20849;-71
2024/02/22 05:38:09;;;;;;;56.53;3.10;;;;;;;;;;5072141;28;20445;-70
2024/02/22 05:40:38;;;;;;;56.63;3.10;;;;;;;;;;5072300;28;20454;-70
2024/02/22 05:43:05;;;;;;;56.20;2.80;;;;;;;;;;5071952;28;20544;-70
2024/02/22 05:45:37;;;;;;;56.00;2.70;;;;;;;;;;5072387;28;20466;-70
2024/02/22 05:48:05;;;;;;;56.00;2.70;;;;;;;;;;5072122;28;20446;-70
2024/02/22 05:50:32;;;;;;;55.83;2.50;;;;;;;;;;5072031;28;20958;-70
2024/02/22 05:52:59;;;;;;;57.70;2.60;;;;;;;;;;5072005;28;20484;-70
2024/02/22 05:55:28;;;;;;;56.40;2.97;;;;;;;;;;5071918;28;20476;-70
2024/02/22 05:57:56;;;;;;;55.97;2.40;;;;;;;;;;5071865;28;20449;-71
2024/02/22 06:00:24;;;;;;;56.27;2.93;;;;;;;;;;5072234;28;20481;-70
2024/02/22 06:02:51;;;;;;;55.67;2.57;;;;;;;;;;5071786;28;20442;-71
2024/02/22 06:05:18;;;;;;;56.87;3.00;;;;;;;;;;5071939;28;20465;-70
2024/02/22 06:07:45;;;;;;;57.13;2.80;;;;;;;;;;5071684;28;20444;-71
2024/02/22 06:10:12;;;;;;;56.50;3.30;;;;;;;;;;5071834;28;20459;-71
2024/02/22 06:12:43;;;;;;;55.90;2.63;;;;;;;;;;5071406;28;20489;-71
2024/02/22 06:15:10;;;;;;;56.20;3.20;;;;;;;;;;5072397;28;20501;-71
2024/02/22 06:17:37;;;;;;;55.40;2.30;;;;;;;;;;5071392;28;20449;-72
2024/02/22 06:20:05;;;;;;;56.00;2.67;;;;;;;;;;5071405;28;20452;-71
2024/02/22 06:22:33;;;;;;;59.10;3.60;;;;;;;;;;5071611;28;20540;-70
2024/02/22 06:24:59;;;;;;;56.10;2.70;;;;;;;;;;5071753;28;20739;-70
2024/02/22 06:27:26;;;;;;;56.20;2.83;;;;;;;;;;5071880;28;20528;-70
2024/02/22 06:29:54;;;;;;;56.10;3.00;;;;;;;;;;5071505;28;20454;-70
2024/02/22 06:32:22;;;;;;;57.17;2.90;;;;;;;;;;5071656;28;20576;-73
2024/02/22 06:34:49;;;;;;;55.90;2.60;;;;;;;;;;5071159;28;20457;-69
2024/02/22 06:37:17;;;;;;;57.57;2.70;;;;;;;;;;5071508;28;20456;-70
2024/02/22 06:39:44;;;;;;;56.00;2.60;;;;;;;;;;5070896;28;20484;-70
2024/02/22 06:42:12;;;;;;;55.97;2.77;;;;;;;;;;5071701;28;20457;-70
2024/02/22 06:44:39;;;;;;;55.70;2.50;;;;;;;;;;5071571;28;20451;-70
2024/02/22 06:47:07;;;;;;;55.90;2.57;;;;;;;;;;5071445;28;20491;-71
2024/02/22 06:49:34;;;;;;;56.10;2.50;;;;;;;;;;5071339;28;20898;-69
2024/02/22 06:52:01;;;;;;;55.67;2.50;;;;;;;;;;5071589;28;20452;-70
2024/02/22 06:54:29;;;;;;;56.17;2.70;;;;;;;;;;5070742;28;20530;-70
2024/02/22 06:56:57;;;;;;;56.07;2.90;;;;;;;;;;5070834;28;20473;-70
2024/02/22 06:59:24;;;;;;;56.77;3.10;;;;;;;;;;5071130;28;21007;-69
2024/02/22 07:01:51;;;;;;;57.70;2.73;;;;;;;;;;5071335;28;20792;-70
2024/02/22 07:04:20;;;;;;;56.50;2.80;;;;;;;;;;5071157;28;20446;-69
2024/02/22 07:06:47;;;;;;;55.77;2.53;;;;;;;;;;5070829;28;20483;-70
2024/02/22 07:09:14;;;;;;;56.07;2.63;;;;;;;;;;5071620;28;20482;-70
2024/02/22 07:11:41;;;;;;;58.60;3.20;;;;;;;;;;5071523;28;20452;-70
2024/02/22 07:14:08;;;;;;;56.87;2.70;;;;;;;;;;5070963;28;21025;-70
2024/02/22 07:16:35;;;;;;;56.87;2.90;;;;;;;;;;5071320;28;20483;-70
2024/02/22 07:19:02;;;;;;;56.30;2.70;;;;;;;;;;5071081;28;20473;-70
2024/02/22 07:21:34;;;;;;;56.80;3.10;;;;;;;;;;5071081;28;20453;-70
2024/02/22 07:24:03;;;;;;;56.57;2.93;;;;;;;;;;5063150;28;20445;-70
2024/02/22 07:26:31;;;;;;;56.80;3.10;;;;;;;;;;5071045;28;20596;-70
2024/02/22 07:28:58;;;;;;;56.57;2.87;;;;;;;;;;5072771;28;20451;-70
2024/02/22 07:31:25;;;;;;;56.07;3.20;;;;;;;;;;5074769;28;20457;-70
2024/02/22 07:33:54;;;;;;;56.97;2.93;;;;;;;;;;5074178;28;20488;-70
2024/02/22 07:36:21;;;;;;;57.17;3.03;;;;;;;;;;5074844;28;20469;-70
2024/02/22 07:38:49;;;;;;;56.93;3.33;;;;;;;;;;5074871;28;20959;-69
2024/02/22 07:41:16;;;;;;;57.20;2.90;;;;;;;;;;5074740;28;20736;-70
2024/02/22 07:43:43;;;;;;;57.40;3.40;;;;;;;;;;5074653;28;20445;-70
2024/02/22 07:46:11;;;;;;;56.93;3.27;;;;;;;;;;5074794;28;20846;-70
2024/02/22 07:48:40;;;;;;;56.77;3.30;;;;;;;;;;5065659;28;20799;-70
2024/02/22 07:51:07;;;;;;;56.67;3.30;;;;;;;;;;5054613;28;20460;-70
2024/02/22 07:53:34;;;;;;;57.93;4.70;;;;;;;;;;5054261;28;20490;-71
2024/02/22 07:56:04;;;;;;;57.50;3.30;;;;;;;;;;5066494;28;20976;-71
2024/02/22 07:58:32;;;;;;;56.83;3.03;;;;;;;;;;5074346;28;20450;-71
2024/02/22 08:01:00;;;;;;;56.00;2.93;;;;;;;;;;5073944;28;20440;-70
2024/02/22 08:03:27;;;;;;;57.07;3.00;;;;;;;;;;5074318;28;20449;-70
2024/02/22 08:05:54;;;;;;;56.90;3.10;;;;;;;;;;5074300;28;20543;-71
2024/02/22 08:08:21;;;;;;;59.47;3.30;;;;;;;;;;5074597;28;20460;-71
2024/02/22 08:10:48;;;;;;;56.20;2.70;;;;;;;;;;5073919;28;20545;-70
2024/02/22 08:13:17;;;;;;;56.60;2.70;;;;;;;;;;5074006;28;20524;-71
2024/02/22 08:15:44;;;;;;;56.10;2.70;;;;;;;;;;5074046;28;20468;-71
2024/02/22 08:18:11;;;;;;;56.10;2.70;;;;;;;;;;5074024;28;20445;-70
2024/02/22 08:20:38;;;;;;;56.00;2.60;;;;;;;;;;5073735;28;20456;-70
2024/02/22 08:23:08;;;;;;;55.90;2.43;;;;;;;;;;5073989;28;20913;-70
2024/02/22 08:25:35;;;;;;;55.60;2.30;;;;;;;;;;5073727;28;21121;-70
2024/02/22 08:28:03;;;;;;;56.00;2.33;;;;;;;;;;5073502;28;20933;-70
2024/02/22 08:30:31;;;;;;;55.87;2.17;;;;;;;;;;5073853;28;20437;-70
2024/02/22 08:32:59;;;;;;;56.63;2.90;;;;;;;;;;5073194;28;20443;-70
2024/02/22 08:35:26;;;;;;;57.60;2.53;;;;;;;;;;5073570;28;20479;-70
2024/02/22 08:37:53;;;;;;;55.47;2.70;;;;;;;;;;5073415;28;20459;-70
2024/02/22 08:40:20;;;;;;;55.97;2.40;;;;;;;;;;5073119;28;20453;-70
2024/02/22 08:42:47;;;;;;;55.47;2.27;;;;;;;;;;5073044;28;20503;-70
2024/02/22 08:45:16;;;;;;;54.60;2.27;;;;;;;;;;5073541;28;20598;-70
2024/02/22 08:47:45;;;;;;;56.20;2.77;;;;;;;;;;5073234;28;20457;-70
2024/02/22 08:50:13;;;;;;;55.50;2.30;;;;;;;;;;5073447;28;20470;-70
2024/02/22 08:52:42;;;;;;;55.17;2.30;;;;;;;;;;5073000;28;20457;-70
2024/02/22 08:55:09;;;;;;;56.37;2.37;;;;;;;;;;5072892;28;20489;-70
2024/02/22 08:57:36;;;;;;;56.13;2.37;;;;;;;;;;5073227;28;20457;-69
2024/02/22 09:00:04;;;;;;;55.77;2.57;;;;;;;;;;5073218;28;20856;-70
2024/02/22 09:02:31;;;;;;;55.40;2.40;;;;;;;;;;5072907;28;20442;-70
2024/02/22 09:05:00;;;;;;;54.77;2.40;;;;;;;;;;5072791;28;20444;-71
2024/02/22 09:07:27;;;;;;;55.47;2.30;;;;;;;;;;5073040;28;20454;-70
2024/02/22 09:09:54;;;;;;;55.40;1.90;;;;;;;;;;5072723;28;20459;-70
2024/02/22 09:12:21;;;;;;;55.37;2.20;;;;;;;;;;5072817;28;20454;-70
2024/02/22 09:14:48;;;;;;;55.50;2.30;;;;;;;;;;5072619;28;20579;-70
2024/02/22 09:17:15;;;;;;;55.10;2.40;;;;;;;;;;5073022;28;20819;-70
2024/02/22 09:19:43;;;;;;;54.57;2.00;;;;;;;;;;5072787;28;20457;-70
2024/02/22 09:22:12;;;;;;;55.40;1.87;;;;;;;;;;5072545;28;20533;-70
2024/02/22 09:24:42;;;;;;;55.87;2.10;;;;;;;;;;5072588;28;20451;-70
2024/02/22 09:27:12;;;;;;;55.50;2.10;;;;;;;;;;5072817;28;20830;-70
2024/02/22 09:29:39;;;;;;;55.30;1.90;;;;;;;;;;5072511;28;20455;-70
2024/02/22 09:32:07;;;;;;;54.97;2.07;;;;;;;;;;5072371;28;20485;-70
2024/02/22 09:34:34;;;;;;;55.77;2.30;;;;;;;;;;5072050;28;20849;-70
2024/02/22 09:37:02;;;;;;;55.50;2.20;;;;;;;;;;5072220;28;20477;-71
2024/02/22 09:39:31;;;;;;;55.57;1.90;;;;;;;;;;5072542;28;20457;-70
2024/02/22 09:41:58;;;;;;;55.70;2.17;;;;;;;;;;5072361;28;20472;-70
2024/02/22 09:44:26;;;;;;;55.50;2.40;;;;;;;;;;5072037;28;20441;-70
2024/02/22 09:46:55;;;;;;;55.50;2.20;;;;;;;;;;5072136;28;20478;-70
2024/02/22 09:49:22;;;;;;;55.37;2.20;;;;;;;;;;5071931;28;20453;-71
2024/02/22 09:51:50;;;;;;;55.20;2.10;;;;;;;;;;5071247;28;20997;-70
2024/02/22 09:54:18;;;;;;;55.70;2.10;;;;;;;;;;5071917;28;20489;-70
2024/02/22 09:56:48;;;;;;;55.40;2.40;;;;;;;;;;5071786;28;20526;-70
2024/02/22 09:59:16;;;;;;;55.37;1.90;;;;;;;;;;5071862;28;20809;-71
2024/02/22 10:01:44;;;;;;;55.03;2.00;;;;;;;;;;5071760;28;20454;-70
2024/02/22 10:04:12;;;;;;;56.80;2.10;;;;;;;;;;5071704;28;20958;-70
2024/02/22 10:06:39;;;;;;;55.50;2.10;;;;;;;;;;5072208;28;20673;-69
2024/02/22 10:09:08;;;;;;;58.30;2.47;;;;;;;;;;5071928;28;20460;-70
2024/02/22 10:11:38;;;;;;;55.43;2.20;;;;;;;;;;5071766;28;20461;-71
2024/02/22 10:14:07;;;;;;;55.57;2.00;;;;;;;;;;5071433;28;20481;-70
2024/02/22 10:16:34;;;;;;;55.03;1.97;;;;;;;;;;5072142;28;20469;-70
2024/02/22 10:19:01;;;;;;;56.17;2.20;;;;;;;;;;5071542;28;20456;-70
2024/02/22 10:21:29;;;;;;;55.43;2.03;;;;;;;;;;5071767;28;20459;-70
2024/02/22 10:23:57;;;;;;;55.20;1.83;;;;;;;;;;5071310;28;20446;-70
2024/02/22 10:26:24;;;;;;;55.40;1.90;;;;;;;;;;5071566;28;20506;-70
2024/02/22 10:29:00;;;;;;;54.77;1.90;;;;;;;;;;5071229;28;20458;-70
2024/02/22 10:31:28;;;;;;;55.40;1.80;;;;;;;;;;5071797;28;20464;-70
2024/02/22 10:33:56;;;;;;;55.00;2.00;;;;;;;;;;5070968;28;20490;-71
2024/02/22 10:36:24;;;;;;;55.43;2.10;;;;;;;;;;5071458;28;21012;-70
2024/02/22 10:38:52;;;;;;;56.87;2.13;;;;;;;;;;5071387;28;20482;-70
2024/02/22 10:41:21;;;;;;;55.77;1.90;;;;;;;;;;5071362;28;20541;-70
2024/02/22 10:43:50;;;;;;;54.77;1.70;;;;;;;;;;5071376;28;20546;-71
2024/02/22 10:46:18;;;;;;;55.40;2.20;;;;;;;;;;5071430;28;20532;-71
2024/02/22 10:48:51;;;;;;;55.80;2.20;;;;;;;;;;5071175;28;20450;-70
2024/02/22 10:51:20;;;;;;;55.17;1.90;;;;;;;;;;5071486;28;20447;-71
2024/02/22 10:53:51;;;;;;;55.47;2.00;;;;;;;;;;5070993;28;20480;-70
2024/02/22 10:56:22;;;;;;;54.90;2.03;;;;;;;;;;5071201;28;20503;-71
2024/02/22 10:58:51;;;;;;;55.73;2.07;;;;;;;;;;5071347;28;20446;-70
2024/02/22 11:01:18;;;;;;;56.13;2.27;;;;;;;;;;5071407;28;20453;-70
2024/02/22 11:03:46;;;;;;;55.33;1.87;;;;;;;;;;5073722;28;20456;-70
2024/02/22 11:06:15;;;;;;;55.57;2.00;;;;;;;;;;5075093;28;20458;-70
2024/02/22 11:08:49;;;;;;;55.43;2.10;;;;;;;;;;5075090;28;20447;-70
2024/02/22 11:11:25;;;;;;;56.53;2.83;;;;;;;;;;5075263;28;20451;-69
2024/02/22 11:13:56;;;;;;;55.40;2.03;;;;;;;;;;5074825;28;20863;-69
2024/02/22 11:16:24;;;;;;;56.20;2.40;;;;;;;;;;5075036;28;20479;-70
2024/02/22 11:18:51;;;;;;;56.70;2.20;;;;;;;;;;5074760;28;20450;-70
2024/02/22 11:21:21;;;;;;;55.73;2.07;;;;;;;;;;5075195;28;20811;-70
2024/02/22 11:23:48;;;;;;;55.80;2.00;;;;;;;;;;5074608;28;20497;-69
2024/02/22 11:26:15;;;;;;;56.27;2.03;;;;;;;;;;5074771;28;20474;-70
2024/02/22 11:28:42;;;;;;;55.90;2.30;;;;;;;;;;5074842;28;20541;-70
2024/02/22 11:31:10;;;;;;;56.17;2.47;;;;;;;;;;5074644;28;20449;-69
2024/02/22 11:33:37;;;;;;;55.70;2.20;;;;;;;;;;5074280;28;20465;-70
2024/02/22 11:36:04;;;;;;;55.50;2.33;;;;;;;;;;5074784;28;20846;-70
2024/02/22 11:38:33;;;;;;;59.53;2.80;;;;;;;;;;5074724;28;20977;-70
2024/02/22 11:41:04;;;;;;;55.10;2.40;;;;;;;;;;5074520;28;20450;-70
2024/02/22 11:43:31;;;;;;;56.00;2.20;;;;;;;;;;5074344;28;20453;-70
2024/02/22 11:46:00;;;;;;;55.77;2.30;;;;;;;;;;5074279;28;20476;-70
2024/02/22 11:48:27;;;;;;;60.00;2.20;;;;;;;;;;5073110;28;20445;-70
2024/02/22 11:50:54;;;;;;;55.60;2.23;;;;;;;;;;5074517;28;20214;-71
2024/02/22 11:53:21;;;;;;;55.70;2.20;;;;;;;;;;5074376;28;20442;-71
2024/02/22 11:55:52;;;;;;;56.17;2.30;;;;;;;;;;5074223;28;20838;-70
2024/02/22 11:58:21;;;;;;;55.20;2.27;;;;;;;;;;5074107;28;20449;-71
2024/02/22 12:00:48;;;;;;;54.67;2.10;;;;;;;;;;5074318;28;20454;-71
2024/02/22 12:03:17;;;;;;;55.60;2.20;;;;;;;;;;5073929;28;20959;-70
2024/02/22 12:05:45;;;;;;;55.50;2.33;;;;;;;;;;5074162;28;20468;-71
2024/02/22 12:08:12;;;;;;;55.10;2.00;;;;;;;;;;5073781;28;20442;-70
2024/02/22 12:10:39;;;;;;;54.67;2.00;;;;;;;;;;5074053;28;20469;-71
2024/02/22 12:13:08;;;;;;;54.90;2.20;;;;;;;;;;5073629;28;20453;-70
2024/02/22 12:15:35;;;;;;;54.40;1.83;;;;;;;;;;5073164;28;20497;-70
2024/02/22 12:18:02;;;;;;;56.30;2.03;;;;;;;;;;5073509;28;20468;-70
2024/02/22 12:20:29;;;;;;;54.70;2.03;;;;;;;;;;5074015;28;20452;-71
2024/02/22 12:22:56;;;;;;;55.43;2.17;;;;;;;;;;5073516;28;20462;-70
2024/02/22 12:25:24;;;;;;;54.90;2.00;;;;;;;;;;5072468;28;20964;-71
2024/02/22 12:27:54;;;;;;;55.70;2.20;;;;;;;;;;5073181;28;20573;-70
2024/02/22 12:30:23;;;;;;;55.80;2.23;;;;;;;;;;5073810;28;20446;-71
2024/02/22 12:32:50;;;;;;;55.10;1.90;;;;;;;;;;5073322;28;20450;-72
2024/02/22 12:35:18;;;;;;;55.37;2.00;;;;;;;;;;5073344;28;20492;-71
2024/02/22 12:37:45;;;;;;;56.17;1.90;;;;;;;;;;5073435;28;20824;-71
2024/02/22 12:40:13;;;;;;;56.13;2.30;;;;;;;;;;5073282;28;20946;-71
2024/02/22 12:42:40;;;;;;;55.60;2.00;;;;;;;;;;5073206;28;20919;-71
2024/02/22 12:45:08;;;;;;;55.37;1.80;;;;;;;;;;5073263;28;20537;-70
2024/02/22 12:47:37;;;;;;;54.60;2.00;;;;;;;;;;5073228;28;20457;-70
2024/02/22 12:50:04;;;;;;;56.30;2.07;;;;;;;;;;5073251;28;20453;-70
2024/02/22 12:52:31;;;;;;;54.97;2.00;;;;;;;;;;5073032;28;20459;-72
2024/02/22 12:54:59;;;;;;;55.37;2.23;;;;;;;;;;5072867;28;21053;-71
2024/02/22 12:57:27;;;;;;;55.73;2.20;;;;;;;;;;5073310;28;20458;-72
2024/02/22 12:59:55;;;;;;;55.47;2.10;;;;;;;;;;5073064;28;20892;-71
2024/02/22 13:02:23;;;;;;;55.40;2.13;;;;;;;;;;5073114;28;20922;-70
2024/02/22 13:04:51;;;;;;;55.30;1.90;;;;;;;;;;5072718;28;20457;-71
2024/02/22 13:07:18;;;;;;;55.23;1.80;;;;;;;;;;5072836;28;20459;-70
2024/02/22 13:09:45;;;;;;;55.80;2.13;;;;;;;;;;5073113;28;20453;-70
2024/02/22 13:12:13;;;;;;;56.20;1.90;;;;;;;;;;5073026;28;20443;-71
2024/02/22 13:14:40;;;;;;;55.60;2.00;;;;;;;;;;5072738;28;20485;-70
2024/02/22 13:17:08;;;;;;;55.07;2.20;;;;;;;;;;5072772;28;20548;-71
2024/02/22 13:19:35;;;;;;;55.70;2.07;;;;;;;;;;5072653;28;20459;-71
2024/02/22 13:22:04;;;;;;;54.77;2.00;;;;;;;;;;5072826;28;20454;-71
2024/02/22 13:24:32;;;;;;;56.97;2.10;;;;;;;;;;5072365;28;20478;-70
2024/02/22 13:26:59;;;;;;;56.53;2.30;;;;;;;;;;5071629;28;20498;-70
2024/02/22 13:29:26;;;;;;;56.33;2.00;;;;;;;;;;5072565;28;20469;-70
2024/02/22 13:31:57;;;;;;;55.13;2.00;;;;;;;;;;5072439;28;20447;-69
2024/02/22 13:34:24;;;;;;;55.10;1.90;;;;;;;;;;5071908;28;20458;-70
2024/02/22 13:36:51;;;;;;;55.60;2.00;;;;;;;;;;5072589;28;20469;-70
2024/02/22 13:39:20;;;;;;;55.07;2.10;;;;;;;;;;5064463;28;20807;-70
2024/02/22 13:41:47;;;;;;;55.70;2.00;;;;;;;;;;5072676;28;20542;-69
2024/02/22 13:44:14;;;;;;;55.87;2.10;;;;;;;;;;5071939;28;20973;-70
2024/02/22 13:46:42;;;;;;;56.50;2.13;;;;;;;;;;5072129;28;20467;-71
2024/02/22 13:49:16;;;;;;;55.27;1.77;;;;;;;;;;5072035;28;20934;-69
2024/02/22 13:51:46;;;;;;;55.50;2.03;;;;;;;;;;5072243;28;20467;-70
2024/02/22 13:54:13;;;;;;;56.37;2.07;;;;;;;;;;5071855;28;20456;-69
2024/02/22 13:56:42;;;;;;;55.83;2.40;;;;;;;;;;5071945;28;20497;-69
2024/02/22 13:59:09;;;;;;;55.20;2.03;;;;;;;;;;5071836;28;20450;-69
2024/02/22 14:01:36;;;;;;;55.40;2.00;;;;;;;;;;5071797;28;20957;-70
2024/02/22 14:04:03;;;;;;;57.37;2.50;;;;;;;;;;5071778;28;20815;-70
2024/02/22 14:06:31;;;;;;;55.80;2.53;;;;;;;;;;5071987;28;20532;-70
2024/02/22 14:08:58;;;;;;;55.23;1.93;;;;;;;;;;5071677;28;20456;-71
2024/02/22 14:11:25;;;;;;;55.47;2.13;;;;;;;;;;5071871;28;20456;-70
2024/02/22 14:13:53;;;;;;;56.50;2.77;;;;;;;;;;5071496;28;20450;-71
2024/02/22 14:16:20;;;;;;;56.20;2.20;;;;;;;;;;5071840;28;20493;-70
2024/02/22 14:18:48;;;;;;;55.50;2.10;;;;;;;;;;5071926;28;20801;-70
2024/02/22 14:21:16;;;;;;;56.10;2.50;;;;;;;;;;5071587;28;20999;-70
2024/02/22 14:23:43;;;;;;;59.40;5.40;;;;;;;;;;5071506;28;20446;-70
2024/02/22 14:26:10;;;;;;;55.90;2.50;;;;;;;;;;5071521;28;20467;-70
2024/02/22 14:28:38;;;;;;;55.40;2.20;;;;;;;;;;5071494;28;20454;-70
2024/02/22 14:31:07;;;;;;;55.77;2.30;;;;;;;;;;5071613;28;20446;-71
2024/02/22 14:33:35;;;;;;;55.47;2.20;;;;;;;;;;5071490;28;20900;-71